Time;durP1;ratioP1;P1;durP2;ratioP2;P2;SDS_P1;SDS_P2;PMS_P1;PMS_P2;Temp;Humidity;BMP_temperature;BMP_pressure;BME280_temperature;BME280_humidity;BME280_pressure;Samples;Min_cycle;Max_cycle;Signal;HPM_P1;HPM_P2
2021/03/23 00:00:43;;;;;;;32.10;20.65;;;;;;;4.20;100.00;100911.66;5021299;28;20029;-75
2021/03/23 00:03:32;;;;;;;28.38;19.40;;;;;;;3.65;100.00;100909.22;5033988;28;20075;-75
2021/03/23 00:06:27;;;;;;;27.70;19.40;;;;;;;3.88;100.00;100915.59;5034615;28;20022;-76
2021/03/23 00:09:13;;;;;;;31.60;21.25;;;;;;;4.02;100.00;100917.50;5034496;28;20033;-75
2021/03/23 00:11:59;;;;;;;28.83;19.80;;;;;;;4.26;100.00;100914.34;5034442;28;20036;-76
2021/03/23 00:14:45;;;;;;;29.85;19.52;;;;;;;4.33;100.00;100916.13;5034482;28;20339;-75
2021/03/23 00:17:30;;;;;;;29.40;20.80;;;;;;;3.90;100.00;100922.53;5034244;28;20025;-76
2021/03/23 00:20:20;;;;;;;31.80;21.67;;;;;;;3.93;100.00;100919.97;5034508;28;20057;-75
2021/03/23 00:23:07;;;;;;;27.98;19.35;;;;;;;4.19;100.00;100921.16;5033629;28;20540;-75
2021/03/23 00:25:53;;;;;;;29.95;20.70;;;;;;;4.36;100.00;100924.81;5020729;28;20033;-75
2021/03/23 00:28:39;;;;;;;26.25;18.98;;;;;;;3.65;100.00;100932.56;5034698;28;20021;-76
2021/03/23 00:31:29;;;;;;;24.83;17.90;;;;;;;4.07;100.00;100925.34;5020645;28;20528;-76
2021/03/23 00:34:14;;;;;;;26.58;19.40;;;;;;;4.27;100.00;100935.06;5034305;28;20044;-75
2021/03/23 00:37:01;;;;;;;24.50;17.48;;;;;;;4.57;100.00;100930.22;5020242;28;20049;-76
2021/03/23 00:39:48;;;;;;;30.27;20.85;;;;;;;4.26;100.00;100937.66;5034688;28;20422;-74
2021/03/23 00:42:34;;;;;;;26.38;19.15;;;;;;;4.42;100.00;100943.03;5019239;28;20029;-74
2021/03/23 00:45:20;;;;;;;30.65;20.98;;;;;;;4.36;100.00;100942.09;5033963;28;20021;-75
2021/03/23 00:48:08;;;;;;;26.20;18.48;;;;;;;4.24;100.00;100934.19;5034302;28;20109;-75
2021/03/23 00:50:54;;;;;;;27.40;19.90;;;;;;;4.19;100.00;100934.09;5034053;28;20021;-75
2021/03/23 00:53:39;;;;;;;29.73;20.70;;;;;;;4.49;100.00;100934.47;5033288;28;20112;-74
2021/03/23 00:56:25;;;;;;;28.63;18.23;;;;;;;4.55;100.00;100931.91;5034057;28;20456;-75
2021/03/23 00:59:11;;;;;;;24.30;17.08;;;;;;;4.29;100.00;100932.50;5033827;28;20029;-75
2021/03/23 01:01:57;;;;;;;24.30;17.50;;;;;;;4.25;100.00;100939.38;5018194;28;20100;-75
2021/03/23 01:04:42;;;;;;;25.83;17.75;;;;;;;4.23;100.00;100935.03;5034412;28;20144;-74
2021/03/23 01:07:28;;;;;;;25.02;16.88;;;;;;;4.19;100.00;100941.88;5034955;28;20382;-74
2021/03/23 01:10:18;;;;;;;27.08;18.98;;;;;;;4.57;100.00;100944.91;5033013;28;20093;-75
2021/03/23 01:13:03;;;;;;;24.77;17.10;;;;;;;4.35;100.00;100948.13;5033315;28;20072;-74
2021/03/23 01:15:49;;;;;;;26.33;18.70;;;;;;;4.32;100.00;100943.78;5033856;28;20076;-75
2021/03/23 01:18:36;;;;;;;23.65;17.27;;;;;;;4.50;100.00;100948.28;5033947;28;20033;-74
2021/03/23 02:06:43;;;;;;;23.45;16.88;;;;;;;4.71;100.00;100953.72;5135786;22;20049;-74
2021/03/23 02:09:31;;;;;;;22.27;15.93;;;;;;;4.80;100.00;100965.06;5016696;28;20517;-75
2021/03/23 02:12:21;;;;;;;23.60;16.40;;;;;;;5.03;100.00;100966.09;5024092;28;20377;-74
2021/03/23 02:15:07;;;;;;;24.02;16.42;;;;;;;4.71;100.00;100972.72;5036218;28;20343;-76
2021/03/23 02:18:11;;;;;;;23.27;16.50;;;;;;;4.76;100.00;100984.06;5024058;28;20036;-77
2021/03/23 02:21:10;;;;;;;24.05;16.95;;;;;;;4.73;100.00;100981.41;5036737;28;20048;-76
2021/03/23 02:23:56;;;;;;;23.70;17.33;;;;;;;4.41;100.00;100985.38;5037086;28;20029;-76
2021/03/23 02:26:42;;;;;;;21.67;15.32;;;;;;;4.56;100.00;100997.66;5023292;28;20083;-76
2021/03/23 02:29:28;;;;;;;22.35;16.33;;;;;;;4.58;100.00;101009.78;5035473;28;20059;-76
2021/03/23 02:32:14;;;;;;;26.42;17.30;;;;;;;4.31;100.00;101011.19;5022978;28;20358;-76
2021/03/23 02:35:00;;;;;;;19.67;14.55;;;;;;;4.41;100.00;101005.25;5035237;28;20029;-76
2021/03/23 02:37:45;;;;;;;22.83;16.73;;;;;;;4.38;100.00;101018.22;5023368;28;20079;-77
2021/03/23 02:40:32;;;;;;;22.85;15.50;;;;;;;4.53;100.00;101024.44;5022458;28;20112;-76
2021/03/23 02:43:18;;;;;;;19.42;14.30;;;;;;;4.33;100.00;101020.75;5035784;28;20100;-76
2021/03/23 02:46:04;;;;;;;21.42;15.65;;;;;;;4.67;100.00;101028.03;5023086;28;20025;-77
2021/03/23 02:48:50;;;;;;;21.42;15.68;;;;;;;4.82;100.00;101024.75;5022310;28;20100;-76
2021/03/23 02:51:36;;;;;;;21.35;15.45;;;;;;;4.89;100.00;101018.75;5022274;28;20537;-78
2021/03/23 02:54:22;;;;;;;22.77;16.52;;;;;;;4.88;100.00;101023.09;5035879;28;20084;-77
2021/03/23 02:57:08;;;;;;;24.38;17.27;;;;;;;4.62;100.00;101019.34;5021552;28;20025;-76
2021/03/23 02:59:54;;;;;;;24.02;17.02;;;;;;;4.70;100.00;101014.22;5036063;28;20105;-77
2021/03/23 03:02:39;;;;;;;23.85;16.17;;;;;;;4.76;100.00;101022.97;5022074;28;20516;-77
2021/03/23 03:05:25;;;;;;;23.95;17.15;;;;;;;4.61;100.00;101029.69;5035592;28;20057;-76
2021/03/23 03:08:11;;;;;;;25.15;17.77;;;;;;;4.84;100.00;101038.63;5036031;28;20058;-76
2021/03/23 03:10:57;;;;;;;24.23;16.40;;;;;;;4.36;100.00;101038.94;5022384;28;20040;-76
2021/03/23 03:13:42;;;;;;;27.23;18.63;;;;;;;4.80;100.00;101044.63;5022701;28;20036;-76
2021/03/23 03:16:28;;;;;;;25.88;17.88;;;;;;;4.60;100.00;101033.16;5020791;28;20025;-76
2021/03/23 03:19:14;;;;;;;27.92;18.77;;;;;;;4.72;100.00;101035.91;5021834;28;20033;-77
2021/03/23 03:22:00;;;;;;;26.15;18.25;;;;;;;5.12;100.00;101036.31;5021842;28;20036;-76
2021/03/23 03:24:46;;;;;;;25.90;18.40;;;;;;;4.83;100.00;101029.09;5021295;28;20413;-76
2021/03/23 03:27:32;;;;;;;26.83;19.17;;;;;;;4.87;100.00;101028.28;5022543;28;20021;-75
2021/03/23 03:30:28;;;;;;;29.05;19.73;;;;;;;4.60;100.00;101028.84;5036017;28;20079;-77
2021/03/23 03:33:17;;;;;;;28.92;19.52;;;;;;;4.31;100.00;101024.16;5034827;28;20025;-76
2021/03/23 03:36:02;;;;;;;26.85;18.38;;;;;;;4.29;100.00;101031.03;5021458;28;20040;-76
2021/03/23 03:38:49;;;;;;;27.25;18.95;;;;;;;4.62;100.00;101028.84;5022744;28;20225;-75
2021/03/23 03:41:35;;;;;;;28.05;19.30;;;;;;;4.81;100.00;101034.28;5035646;28;20033;-77
2021/03/23 03:44:21;;;;;;;27.88;19.63;;;;;;;4.51;100.00;101039.09;5021046;28;20071;-77
2021/03/23 03:47:07;;;;;;;28.42;19.05;;;;;;;4.67;100.00;101033.22;5035453;28;20036;-76
2021/03/23 03:49:52;;;;;;;27.35;18.70;;;;;;;4.52;100.00;101039.97;5022371;28;20025;-76
2021/03/23 03:52:38;;;;;;;28.15;18.58;;;;;;;4.39;100.00;101038.09;5036363;28;20362;-76
2021/03/23 03:55:30;;;;;;;26.77;18.75;;;;;;;4.54;100.00;101038.25;5020848;28;20025;-76
2021/03/23 03:58:16;;;;;;;26.30;17.70;;;;;;;4.75;100.00;101044.56;5035693;28;20033;-76
2021/03/23 04:01:03;;;;;;;32.10;20.08;;;;;;;4.49;100.00;101043.41;5022064;28;20108;-76
2021/03/23 04:03:48;;;;;;;28.52;20.00;;;;;;;4.45;100.00;101043.34;5021328;28;20029;-76
2021/03/23 04:06:34;;;;;;;31.67;20.42;;;;;;;4.44;100.00;101047.69;5015820;28;20049;-77
2021/03/23 04:09:20;;;;;;;30.25;20.00;;;;;;;4.58;100.00;101046.09;5014616;28;20030;-76
2021/03/23 04:12:07;;;;;;;27.27;18.50;;;;;;;4.39;100.00;101041.53;5014407;28;20065;-76
2021/03/23 04:14:53;;;;;;;30.90;18.40;;;;;;;4.37;100.00;101048.44;5001184;28;20033;-77
2021/03/23 04:17:38;;;;;;;26.70;18.95;;;;;;;4.52;100.00;101050.34;5000313;28;20061;-77
2021/03/23 04:20:25;;;;;;;25.00;16.75;;;;;;;4.55;100.00;101056.44;5000459;28;20140;-76
2021/03/23 04:23:19;;;;;;;24.23;16.67;;;;;;;4.33;100.00;101054.44;5000234;28;20184;-76
2021/03/23 04:26:07;;;;;;;21.55;14.85;;;;;;;4.12;100.00;101053.28;5015051;28;20104;-76
2021/03/23 04:28:53;;;;;;;21.20;14.27;;;;;;;4.10;100.00;101053.25;5000345;28;20096;-77
2021/03/23 04:31:43;;;;;;;21.27;15.05;;;;;;;4.01;100.00;101055.75;5014208;28;20033;-77
2021/03/23 04:34:29;;;;;;;21.65;15.32;;;;;;;4.01;100.00;101060.91;5034136;28;20090;-76
2021/03/23 04:37:14;;;;;;;23.48;14.80;;;;;;;3.91;100.00;101063.38;5033952;28;20022;-76
2021/03/23 04:40:02;;;;;;;25.15;15.80;;;;;;;3.84;100.00;101067.59;5034409;28;20060;-77
2021/03/23 04:42:48;;;;;;;25.45;15.43;;;;;;;3.97;100.00;101068.63;5033234;28;20048;-76
2021/03/23 04:45:34;;;;;;;23.15;15.77;;;;;;;4.17;100.00;101075.84;5032598;28;20424;-77
2021/03/23 04:48:21;;;;;;;22.75;14.80;;;;;;;4.06;100.00;101076.56;5033391;28;20021;-77
2021/03/23 04:51:08;;;;;;;22.75;15.02;;;;;;;4.02;100.00;101085.13;5033000;28;20044;-76
2021/03/23 04:54:00;;;;;;;25.45;16.35;;;;;;;4.10;100.00;101083.53;5033093;28;20527;-74
2021/03/23 04:56:46;;;;;;;22.08;14.68;;;;;;;4.25;100.00;101078.53;5033498;28;20355;-75
2021/03/23 04:59:32;;;;;;;22.30;14.35;;;;;;;3.71;100.00;101086.41;5035019;28;20385;-73
2021/03/23 05:02:18;;;;;;;22.67;15.13;;;;;;;4.18;100.00;101087.94;5019842;28;20052;-74
2021/03/23 05:05:08;;;;;;;22.58;15.00;;;;;;;4.41;100.00;101091.72;5032502;28;20053;-73
2021/03/23 05:07:54;;;;;;;24.60;15.88;;;;;;;4.24;100.00;101090.66;5034701;28;20029;-74
2021/03/23 05:10:40;;;;;;;22.63;15.38;;;;;;;4.36;100.00;101096.00;5034658;28;20044;-74
2021/03/23 05:13:26;;;;;;;20.83;13.77;;;;;;;4.16;100.00;101101.75;5033988;28;20040;-74
2021/03/23 05:16:12;;;;;;;24.77;15.57;;;;;;;4.59;100.00;101102.34;5033580;28;20549;-74
2021/03/23 05:18:58;;;;;;;20.60;13.70;;;;;;;4.05;100.00;101103.31;5032776;28;20116;-74
2021/03/23 05:21:44;;;;;;;21.00;13.65;;;;;;;4.22;100.00;101105.28;5032941;28;20108;-74
2021/03/23 05:24:29;;;;;;;20.10;13.50;;;;;;;4.29;100.00;101109.72;5033223;28;20040;-74
2021/03/23 05:27:15;;;;;;;25.85;16.85;;;;;;;4.56;100.00;101106.63;5034059;28;20025;-73
2021/03/23 05:30:02;;;;;;;24.25;15.48;;;;;;;4.42;100.00;101101.25;5033934;28;20227;-74
2021/03/23 05:32:48;;;;;;;24.48;15.02;;;;;;;4.34;100.00;101102.88;5033029;28;20087;-74
2021/03/23 05:35:34;;;;;;;19.80;11.95;;;;;;;4.49;100.00;101104.78;5032957;28;20033;-74
2021/03/23 05:38:20;;;;;;;17.98;11.45;;;;;;;4.13;100.00;101112.94;5032977;28;20037;-74
2021/03/23 05:41:13;;;;;;;15.77;10.05;;;;;;;4.15;100.00;101120.75;5036137;28;20068;-74
2021/03/23 05:44:10;;;;;;;15.45;10.02;;;;;;;3.92;100.00;101123.00;5037255;28;20415;-74
2021/03/23 05:46:56;;;;;;;15.65;9.85;;;;;;;4.35;100.00;101124.50;5036706;28;20037;-74
2021/03/23 05:49:51;;;;;;;19.20;11.75;;;;;;;4.54;100.00;101135.13;5036718;28;20037;-74
2021/03/23 05:52:46;;;;;;;14.35;9.77;;;;;;;4.64;100.00;101131.84;5036320;28;20025;-74
2021/03/23 05:55:38;;;;;;;19.38;12.05;;;;;;;4.65;100.00;101141.34;5037061;28;20526;-76
2021/03/23 05:58:27;;;;;;;23.92;14.48;;;;;;;4.92;100.00;101146.00;5037139;28;20462;-75
2021/03/23 06:01:19;;;;;;;17.33;11.38;;;;;;;4.84;100.00;101140.75;5023228;28;20025;-76
2021/03/23 06:04:27;;;;;;;14.45;9.50;;;;;;;4.53;100.00;101133.41;5036017;28;20424;-74
2021/03/23 06:07:15;;;;;;;15.73;9.20;;;;;;;4.50;100.00;101129.88;5035840;28;20026;-74
2021/03/23 06:10:01;;;;;;;16.77;8.65;;;;;;;4.38;100.00;101138.38;5023251;28;20026;-75
2021/03/23 06:13:13;;;;;;;16.50;8.52;;;;;;;4.92;100.00;101136.50;5022842;28;20045;-74
2021/03/23 06:16:15;;;;;;;13.05;8.90;;;;;;;5.18;100.00;101144.56;5037862;28;20025;-74
2021/03/23 06:19:07;;;;;;;18.88;11.02;;;;;;;5.03;100.00;101147.00;5022860;28;20021;-76
2021/03/23 06:22:08;;;;;;;15.30;9.75;;;;;;;4.74;100.00;101146.66;5022831;28;20040;-76
2021/03/23 06:25:10;;;;;;;15.40;8.00;;;;;;;5.44;100.00;101154.38;5020803;28;20057;-76
2021/03/23 06:28:01;;;;;;;18.70;9.57;;;;;;;4.97;100.00;101158.19;5036426;28;20171;-74
2021/03/23 06:31:00;;;;;;;14.05;9.00;;;;;;;5.86;100.00;101153.94;5036556;28;20025;-76
2021/03/23 06:33:46;;;;;;;13.05;7.80;;;;;;;6.05;100.00;101154.94;5010050;28;20095;-76
2021/03/23 06:36:32;;;;;;;12.35;7.55;;;;;;;5.63;100.00;101163.25;5036550;28;20117;-76
2021/03/23 06:39:19;;;;;;;12.98;6.80;;;;;;;6.05;100.00;101160.16;5021691;28;20091;-73
2021/03/23 06:42:06;;;;;;;8.45;5.53;;;;;;;5.58;100.00;101177.06;5034821;28;20109;-74
2021/03/23 06:45:25;;;;;;;10.70;6.35;;;;;;;5.39;100.00;101170.78;5021525;28;20048;-76
2021/03/23 06:48:29;;;;;;;10.20;6.03;;;;;;;4.83;100.00;101174.47;5036359;28;20025;-76
2021/03/23 06:51:19;;;;;;;22.75;10.50;;;;;;;5.46;100.00;101175.19;5020188;28;20195;-74
2021/03/23 06:54:18;;;;;;;12.07;7.18;;;;;;;5.74;100.00;101173.75;5022038;28;20033;-75
2021/03/23 06:57:22;;;;;;;9.43;6.10;;;;;;;5.64;100.00;101175.38;5036124;28;20021;-76
2021/03/23 07:00:21;;;;;;;12.73;7.97;;;;;;;6.42;100.00;101165.63;5035382;28;20440;-76
2021/03/23 07:03:23;;;;;;;8.52;5.47;;;;;;;6.48;100.00;101170.88;5021295;28;20026;-75
2021/03/23 07:06:23;;;;;;;13.00;7.13;;;;;;;5.19;100.00;101170.56;5035014;28;20056;-75
2021/03/23 07:09:22;;;;;;;9.38;5.43;;;;;;;6.07;100.00;101164.50;5035336;28;20026;-75
2021/03/23 07:12:08;;;;;;;15.38;8.73;;;;;;;6.24;100.00;101168.13;5035526;28;20021;-75
2021/03/23 07:15:09;;;;;;;10.02;5.40;;;;;;;6.14;100.00;101155.91;5035818;28;20482;-77
2021/03/23 07:18:10;;;;;;;8.10;5.05;;;;;;;6.44;100.00;101160.44;5022706;28;20034;-75
2021/03/23 07:21:04;;;;;;;19.55;11.07;;;;;;;6.91;100.00;101153.75;5035072;28;20030;-76
2021/03/23 07:24:03;;;;;;;13.02;5.93;;;;;;;6.08;100.00;101158.47;5034058;28;20520;-77
2021/03/23 07:27:05;;;;;;;18.63;9.98;;;;;;;5.91;100.00;101162.63;5035834;28;20032;-75
2021/03/23 07:30:30;;;;;;;9.25;5.75;;;;;;;6.33;100.00;101149.97;5020266;28;20060;-76
2021/03/23 07:33:46;;;;;;;12.85;6.10;;;;;;;6.11;100.00;101161.06;5035781;28;20029;-76
2021/03/23 07:36:44;;;;;;;7.07;4.78;;;;;;;6.24;100.00;101167.25;5035623;28;20033;-75
2021/03/23 07:39:39;;;;;;;10.90;5.50;;;;;;;6.50;100.00;101161.34;5034976;28;20114;-77
2021/03/23 07:42:43;;;;;;;6.88;4.03;;;;;;;6.25;99.65;101169.84;5035234;28;20033;-76
2021/03/23 07:45:40;;;;;;;8.73;4.10;;;;;;;5.25;100.00;101175.84;5021364;28;20112;-74
2021/03/23 07:48:41;;;;;;;9.90;4.20;;;;;;;5.23;100.00;101172.34;5019613;28;20017;-75
2021/03/23 07:51:41;;;;;;;8.43;5.20;;;;;;;6.19;100.00;101169.78;5035181;28;20022;-75
2021/03/23 07:54:34;;;;;;;8.57;4.75;;;;;;;6.28;100.00;101169.00;5034898;28;20450;-74
2021/03/23 07:57:35;;;;;;;8.60;5.43;;;;;;;6.87;100.00;101159.81;5020644;28;20411;-76
2021/03/23 08:01:02;;;;;;;8.63;4.93;;;;;;;6.66;100.00;101159.69;5021172;28;20419;-74
2021/03/23 08:04:19;;;;;;;6.63;3.70;;;;;;;6.21;89.07;101165.50;5034668;28;20034;-76
2021/03/23 08:07:28;;;;;;;3.55;2.70;;;;;;;5.77;86.58;101161.63;5020618;28;20124;-76
2021/03/23 08:10:21;;;;;;;6.22;2.60;;;;;;;5.55;80.31;101170.09;5035035;28;20449;-75
2021/03/23 08:13:30;;;;;;;4.82;2.65;;;;;;;5.67;81.84;101162.41;5020585;28;20080;-76
2021/03/23 08:16:41;;;;;;;7.80;3.25;;;;;;;5.84;80.55;101153.06;5034219;28;20034;-76
2021/03/23 08:19:46;;;;;;;4.88;2.75;;;;;;;5.98;75.91;101155.78;5034815;28;20033;-76
2021/03/23 08:23:02;;;;;;;4.18;2.40;;;;;;;5.84;68.93;101155.66;5033511;28;20041;-78
2021/03/23 08:26:18;;;;;;;4.30;2.25;;;;;;;5.77;73.52;101148.63;5019780;28;20453;-74
2021/03/23 08:29:18;;;;;;;5.85;2.70;;;;;;;6.60;72.87;101138.84;5019848;28;20099;-74
2021/03/23 08:32:28;;;;;;;3.88;2.10;;;;;;;5.94;69.56;101141.03;5034255;28;20043;-75
2021/03/23 08:35:49;;;;;;;4.68;2.30;;;;;;;6.90;74.32;101146.78;5020294;28;20036;-75
2021/03/23 08:38:52;;;;;;;7.45;2.30;;;;;;;6.58;73.07;101135.34;5034184;28;20029;-76
2021/03/23 08:41:56;;;;;;;6.47;2.92;;;;;;;7.14;73.84;101142.53;5034155;28;20087;-74
2021/03/23 08:45:14;;;;;;;5.03;3.10;;;;;;;8.43;77.14;101126.09;5034534;28;20044;-74
2021/03/23 08:48:05;;;;;;;4.93;3.15;;;;;;;8.64;70.51;101120.84;5033351;28;20056;-75
2021/03/23 08:51:00;;;;;;;4.43;2.67;;;;;;;8.07;61.78;101124.38;5033807;28;20476;-74
2021/03/23 08:53:54;;;;;;;6.53;3.55;;;;;;;8.90;66.95;101124.22;5033136;28;20029;-75
2021/03/23 08:56:48;;;;;;;6.85;3.08;;;;;;;8.97;63.42;101120.69;5033400;28;20061;-75
2021/03/23 08:59:34;;;;;;;5.95;2.85;;;;;;;8.44;59.52;101120.03;5019440;28;20025;-75
2021/03/23 09:02:19;;;;;;;7.05;2.20;;;;;;;7.92;58.55;101119.16;5019325;28;20053;-74
2021/03/23 09:05:25;;;;;;;3.33;2.03;;;;;;;7.23;57.75;101115.66;5033130;28;20548;-74
2021/03/23 09:08:28;;;;;;;4.18;2.10;;;;;;;7.14;60.58;101113.88;5033353;28;20450;-76
2021/03/23 09:11:37;;;;;;;4.03;2.20;;;;;;;6.62;61.52;101117.16;5033689;28;20026;-75
2021/03/23 09:14:27;;;;;;;6.07;2.60;;;;;;;7.20;69.27;101113.03;5033563;28;20048;-76
2021/03/23 09:17:15;;;;;;;5.45;2.63;;;;;;;7.09;70.57;101107.81;5033275;28;20048;-75
2021/03/23 09:20:38;;;;;;;5.97;3.08;;;;;;;7.74;69.71;101105.25;5033792;28;20109;-74
2021/03/23 09:23:25;;;;;;;7.70;3.47;;;;;;;7.94;66.19;101101.78;5033064;28;20442;-74
2021/03/23 09:26:43;;;;;;;5.15;2.40;;;;;;;8.14;65.05;101092.22;5033236;28;20450;-74
2021/03/23 09:29:32;;;;;;;5.05;2.38;;;;;;;8.76;64.62;101102.50;5033564;28;20083;-74
2021/03/23 09:32:25;;;;;;;4.75;2.50;;;;;;;8.63;67.50;101095.56;5033451;28;20052;-76
2021/03/23 09:35:22;;;;;;;3.05;2.25;;;;;;;8.39;66.60;101095.66;5032883;28;20041;-76
2021/03/23 09:38:39;;;;;;;6.20;2.67;;;;;;;9.61;70.13;101086.28;5032955;28;20450;-76
2021/03/23 09:41:37;;;;;;;5.65;2.70;;;;;;;9.76;63.54;101082.69;5027822;28;20076;-76
2021/03/23 09:44:26;;;;;;;6.50;3.67;;;;;;;9.18;66.31;101090.09;5033961;28;20029;-75
2021/03/23 09:47:35;;;;;;;7.68;3.17;;;;;;;8.84;66.50;101085.91;5018716;28;20121;-76
2021/03/23 09:50:33;;;;;;;5.10;2.40;;;;;;;7.61;70.82;101075.72;5019963;28;20033;-76
2021/03/23 09:53:22;;;;;;;7.57;3.63;;;;;;;8.42;73.27;101078.25;5033011;28;20052;-76
2021/03/23 09:56:25;;;;;;;7.18;3.50;;;;;;;8.60;68.38;101082.53;5032517;28;20025;-75
2021/03/23 09:59:13;;;;;;;5.35;3.30;;;;;;;8.86;71.02;101065.00;5018024;28;20029;-75
2021/03/23 10:02:04;;;;;;;6.97;3.70;;;;;;;8.46;69.16;101064.31;5032961;28;20112;-74
2021/03/23 10:04:50;;;;;;;4.68;3.25;;;;;;;7.17;70.06;101068.72;5018738;28;20045;-75
2021/03/23 10:07:42;;;;;;;7.03;3.60;;;;;;;7.53;71.64;101067.03;5018371;28;20421;-74
2021/03/23 10:10:33;;;;;;;6.05;3.67;;;;;;;7.89;75.76;101063.53;5019123;28;20018;-75
2021/03/23 10:13:29;;;;;;;5.18;3.70;;;;;;;7.94;74.68;101060.06;5018384;28;20097;-74
2021/03/23 10:16:35;;;;;;;9.70;5.15;;;;;;;8.24;76.43;101056.56;5032293;28;20362;-74
2021/03/23 10:19:24;;;;;;;8.90;5.45;;;;;;;8.82;71.13;101051.09;5018082;28;20034;-74
2021/03/23 10:22:14;;;;;;;7.85;4.63;;;;;;;8.79;70.24;101058.94;5033190;28;20040;-74
2021/03/23 10:25:03;;;;;;;10.05;6.85;;;;;;;8.95;73.09;101049.25;5033589;28;20084;-74
2021/03/23 10:27:49;;;;;;;9.88;6.30;;;;;;;8.70;76.52;101058.13;5036467;28;20013;-73
2021/03/23 10:30:37;;;;;;;12.13;7.47;;;;;;;8.49;76.51;101058.22;5021994;28;20056;-73
2021/03/23 10:33:30;;;;;;;9.50;6.40;;;;;;;9.03;75.09;101053.59;5021398;28;20079;-74
2021/03/23 10:36:15;;;;;;;11.40;6.95;;;;;;;8.68;78.44;101046.81;5036354;28;20037;-74
2021/03/23 10:39:01;;;;;;;8.43;6.53;;;;;;;8.62;76.99;101050.31;5036651;28;20056;-74
2021/03/23 10:41:47;;;;;;;9.35;5.95;;;;;;;8.37;76.44;101047.81;5036298;28;20091;-74
2021/03/23 10:44:33;;;;;;;11.77;6.90;;;;;;;8.44;80.08;101045.16;5021934;28;20026;-74
2021/03/23 10:47:33;;;;;;;10.73;6.32;;;;;;;8.40;83.68;101043.44;5036052;28;20091;-74
2021/03/23 10:50:21;;;;;;;11.02;7.22;;;;;;;8.21;82.08;101036.56;5036411;28;20036;-75
2021/03/23 10:53:21;;;;;;;9.43;6.72;;;;;;;9.15;81.81;101045.66;5035961;28;20025;-76
2021/03/23 10:56:21;;;;;;;10.85;6.78;;;;;;;8.30;80.74;101041.75;5021489;28;20029;-76
2021/03/23 10:59:14;;;;;;;9.57;5.90;;;;;;;7.95;78.89;101035.69;5020617;28;20040;-75
2021/03/23 11:02:12;;;;;;;8.05;5.50;;;;;;;7.51;77.65;101044.44;5021034;28;20117;-75
2021/03/23 11:05:12;;;;;;;15.07;9.50;;;;;;;8.33;82.69;101035.63;5036730;28;20057;-77
2021/03/23 11:08:01;;;;;;;9.00;5.85;;;;;;;8.39;81.70;101030.38;5035918;28;20025;-75
2021/03/23 11:10:47;;;;;;;9.48;5.72;;;;;;;8.86;76.24;101033.66;5020290;28;20041;-75
2021/03/23 11:13:33;;;;;;;9.80;6.55;;;;;;;9.11;81.61;101035.22;5035614;28;20083;-75
2021/03/23 11:16:24;;;;;;;10.23;5.57;;;;;;;8.90;78.63;101030.13;5035743;28;20033;-74
2021/03/23 11:19:30;;;;;;;9.68;5.65;;;;;;;8.73;72.14;101016.31;5022373;28;20026;-76
2021/03/23 11:22:25;;;;;;;9.48;5.40;;;;;;;8.37;78.23;101019.09;5020265;28;20116;-75
2021/03/23 11:25:18;;;;;;;8.35;5.65;;;;;;;8.25;87.19;101013.91;5021689;28;20045;-74
2021/03/23 11:28:04;;;;;;;8.13;5.55;;;;;;;8.58;91.92;101019.88;5035688;28;20021;-75
2021/03/23 11:30:50;;;;;;;9.02;5.93;;;;;;;8.41;100.00;101021.66;5034398;28;20095;-73
2021/03/23 11:33:36;;;;;;;9.40;6.05;;;;;;;8.08;100.00;101020.91;5034897;28;20025;-75
2021/03/23 11:36:23;;;;;;;9.55;6.05;;;;;;;7.84;100.00;101016.56;5034897;28;20067;-75
2021/03/23 11:39:10;;;;;;;9.05;6.30;;;;;;;7.56;100.00;101017.47;5034266;28;20033;-75
2021/03/23 11:42:07;;;;;;;9.07;6.45;;;;;;;8.13;100.00;101012.19;5034940;28;20037;-75
2021/03/23 11:44:59;;;;;;;11.60;7.20;;;;;;;7.96;100.00;101013.09;5021367;28;20022;-75
2021/03/23 11:48:03;;;;;;;7.95;5.70;;;;;;;7.84;100.00;101013.13;5034188;28;20095;-76
2021/03/23 11:50:51;;;;;;;12.02;7.03;;;;;;;7.99;100.00;101013.06;5020280;28;20094;-76
2021/03/23 11:53:37;;;;;;;10.80;7.03;;;;;;;7.69;100.00;101011.41;5034573;28;20040;-76
2021/03/23 11:56:24;;;;;;;8.02;5.75;;;;;;;7.38;100.00;101009.69;5021538;28;20029;-74
2021/03/23 11:59:10;;;;;;;10.55;5.75;;;;;;;8.27;100.00;101002.59;5034771;28;20034;-74
2021/03/23 12:01:56;;;;;;;7.75;5.78;;;;;;;8.08;100.00;101006.09;5034570;28;20037;-73
2021/03/23 12:04:42;;;;;;;7.22;5.38;;;;;;;7.44;100.00;101006.22;5034517;28;20060;-74
2021/03/23 12:07:40;;;;;;;7.93;5.28;;;;;;;7.36;100.00;101008.78;5034647;28;20029;-74
2021/03/23 12:10:32;;;;;;;8.25;5.45;;;;;;;7.55;100.00;100994.91;5034849;28;20026;-73
2021/03/23 12:13:35;;;;;;;8.23;5.05;;;;;;;7.65;100.00;100998.38;5034004;28;20100;-73
2021/03/23 12:16:43;;;;;;;7.93;5.25;;;;;;;7.49;100.00;100988.81;5035771;28;20036;-74
2021/03/23 12:19:41;;;;;;;11.45;6.90;;;;;;;7.71;100.00;100995.72;5035320;28;20022;-75
2021/03/23 12:22:27;;;;;;;7.38;5.38;;;;;;;8.03;100.00;100992.19;5019204;28;20124;-75
2021/03/23 12:25:18;;;;;;;7.38;5.28;;;;;;;7.98;100.00;100995.69;5033945;28;20105;-75
2021/03/23 12:28:04;;;;;;;5.72;4.40;;;;;;;7.55;100.00;100988.84;5035971;28;20049;-77
2021/03/23 12:30:50;;;;;;;9.43;5.35;;;;;;;7.99;100.00;100987.84;5033694;28;20068;-76
2021/03/23 12:33:36;;;;;;;7.38;4.80;;;;;;;7.72;100.00;100982.69;5034408;28;20040;-75
2021/03/23 12:36:32;;;;;;;7.90;5.55;;;;;;;7.68;100.00;100983.56;5019607;28;20022;-75
2021/03/23 12:39:18;;;;;;;9.95;5.63;;;;;;;7.95;100.00;100978.31;5034409;28;20450;-74
2021/03/23 12:42:05;;;;;;;10.43;6.72;;;;;;;7.77;100.00;100980.09;5033203;28;20094;-74
2021/03/23 12:44:51;;;;;;;7.88;5.93;;;;;;;7.54;100.00;100977.53;5034536;28;20030;-76
2021/03/23 12:47:37;;;;;;;8.75;6.07;;;;;;;8.28;100.00;100985.19;5033370;28;20053;-76
2021/03/23 12:50:23;;;;;;;7.90;5.40;;;;;;;7.67;100.00;100979.22;5033851;28;20036;-76
2021/03/23 12:53:13;;;;;;;6.63;5.20;;;;;;;7.38;100.00;100980.13;5020922;28;20187;-76
2021/03/23 12:56:02;;;;;;;9.05;5.80;;;;;;;7.26;100.00;100969.72;5018798;28;20099;-76
2021/03/23 12:58:48;;;;;;;7.85;5.90;;;;;;;7.18;100.00;100964.50;5034217;28;20373;-75
2021/03/23 13:01:33;;;;;;;9.98;6.93;;;;;;;7.40;100.00;100962.78;5034113;28;20422;-75
2021/03/23 13:04:21;;;;;;;9.23;6.53;;;;;;;7.44;100.00;100959.28;5019384;28;20336;-76
2021/03/23 13:07:17;;;;;;;9.15;6.20;;;;;;;7.48;100.00;100959.25;5033505;28;20071;-75
2021/03/23 13:10:27;;;;;;;8.63;5.95;;;;;;;7.79;100.00;100962.69;5019330;28;20081;-76
2021/03/23 13:13:19;;;;;;;9.43;6.55;;;;;;;7.62;100.00;100969.69;5019983;28;20017;-75
2021/03/23 13:16:04;;;;;;;8.90;6.20;;;;;;;7.02;100.00;100969.69;5018825;28;20037;-75
2021/03/23 13:19:04;;;;;;;9.13;6.03;;;;;;;6.64;100.00;100974.88;5033931;28;20105;-77
2021/03/23 13:22:01;;;;;;;8.15;5.95;;;;;;;7.23;100.00;100970.59;5019163;28;20028;-76
2021/03/23 13:24:50;;;;;;;8.93;6.78;;;;;;;7.04;100.00;100967.97;5033779;28;20040;-76
2021/03/23 13:27:39;;;;;;;7.82;5.85;;;;;;;6.61;100.00;100969.66;5018138;28;20063;-76
2021/03/23 13:30:29;;;;;;;10.10;6.43;;;;;;;6.62;100.00;100973.09;5019865;28;20033;-73
2021/03/23 13:33:17;;;;;;;10.63;7.47;;;;;;;6.74;100.00;100965.31;5034176;28;20502;-74
2021/03/23 13:36:06;;;;;;;8.95;6.10;;;;;;;6.87;100.00;100956.69;5033543;28;20029;-74
2021/03/23 13:38:52;;;;;;;10.27;6.07;;;;;;;6.89;100.00;100958.41;5033090;28;20071;-75
2021/03/23 13:41:38;;;;;;;9.85;5.90;;;;;;;6.86;100.00;100949.72;5032880;28;20036;-76
2021/03/23 13:44:33;;;;;;;8.52;5.65;;;;;;;7.12;100.00;100948.00;5018939;28;20032;-74
2021/03/23 13:47:21;;;;;;;9.73;6.70;;;;;;;7.16;100.00;100949.75;5033281;28;20044;-75
2021/03/23 13:50:09;;;;;;;11.25;6.30;;;;;;;6.86;100.00;100948.00;5018251;28;20454;-76
2021/03/23 13:53:03;;;;;;;12.90;7.15;;;;;;;7.15;100.00;100954.06;5032808;28;20037;-76
2021/03/23 13:55:50;;;;;;;14.43;9.07;;;;;;;7.05;100.00;100943.66;5033127;28;20040;-75
2021/03/23 13:58:41;;;;;;;11.27;7.88;;;;;;;7.22;100.00;100937.59;5033139;28;20448;-76